Time;durP1;ratioP1;P1;durP2;ratioP2;P2;SDS_P1;SDS_P2;PMS_P1;PMS_P2;Temp;Humidity;BMP_temperature;BMP_pressure;BME280_temperature;BME280_humidity;BME280_pressure;Samples;Min_cycle;Max_cycle;Signal;HPM_P1;HPM_P2
2021/09/27 00:00:08;;;;;;;3.05;2.45;;;;;;;7.14;95.29;101148.08;1732327;82;21529;-51
2021/09/27 00:02:34;;;;;;;8.90;3.00;;;;;;;7.13;95.27;101143.78;1751344;81;20932;-52
2021/09/27 00:05:01;;;;;;;3.58;2.72;;;;;;;7.12;95.33;101142.05;1751502;82;21813;-53
2021/09/27 00:07:28;;;;;;;6.53;3.00;;;;;;;7.11;95.26;101141.63;1751444;81;20996;-53
2021/09/27 00:09:54;;;;;;;13.05;4.00;;;;;;;7.08;95.14;101139.47;1732963;82;21533;-55
2021/09/27 00:12:21;;;;;;;8.43;3.08;;;;;;;7.01;95.09;101134.70;1751520;82;21533;-53
2021/09/27 00:14:47;;;;;;;6.40;3.20;;;;;;;6.96;95.17;101140.24;1751896;82;20958;-54
2021/09/27 00:17:14;;;;;;;5.30;3.10;;;;;;;6.93;95.39;101139.78;1751628;82;21061;-53
2021/09/27 00:19:40;;;;;;;4.15;2.40;;;;;;;6.92;95.30;101136.77;1751903;82;20952;-54
2021/09/27 00:22:07;;;;;;;6.03;2.40;;;;;;;6.89;95.28;101141.46;1732450;82;20980;-53
2021/09/27 00:24:34;;;;;;;5.60;2.60;;;;;;;6.86;95.26;101134.16;1751705;81;20975;-55
2021/09/27 00:27:00;;;;;;;6.15;3.05;;;;;;;6.81;95.56;101135.40;1751621;81;20972;-52
2021/09/27 00:29:26;;;;;;;2.62;2.30;;;;;;;6.83;95.76;101139.28;1751834;82;21110;-56
2021/09/27 00:31:53;;;;;;;4.58;2.30;;;;;;;6.87;95.92;101139.30;1732288;82;21526;-54
2021/09/27 00:34:19;;;;;;;4.75;2.17;;;;;;;6.89;95.92;101132.89;1751571;81;21007;-52
2021/09/27 00:36:45;;;;;;;3.98;2.25;;;;;;;6.93;96.13;101133.34;1751568;82;20940;-49
2021/09/27 00:39:12;;;;;;;5.55;2.25;;;;;;;6.99;96.15;101135.11;1751715;81;20964;-54
2021/09/27 00:41:38;;;;;;;3.65;1.87;;;;;;;7.03;96.19;101140.72;1751557;81;21400;-55
2021/09/27 00:44:04;;;;;;;9.50;2.45;;;;;;;7.07;96.21;101143.74;1743604;81;20917;-51
2021/09/27 00:46:32;;;;;;;4.08;2.02;;;;;;;7.12;96.15;101139.48;1743689;81;21483;-55
2021/09/27 00:49:00;;;;;;;3.10;2.20;;;;;;;7.18;95.93;101145.95;1743656;81;20949;-53
2021/09/27 00:51:31;;;;;;;3.87;1.87;;;;;;;7.24;95.68;101145.58;1743630;81;21023;-52
2021/09/27 00:54:01;;;;;;;4.50;2.45;;;;;;;7.28;95.60;101146.88;1732972;82;21091;-54
2021/09/27 00:58:11;;;;;;;3.67;2.00;;;;;;;7.40;95.35;101150.40;1815419;79;22645;-50
2021/09/27 01:00:37;;;;;;;2.50;2.30;;;;;;;7.40;95.16;101148.66;1788566;80;20972;-54
2021/09/27 01:03:03;;;;;;;4.22;2.75;;;;;;;7.43;94.83;101151.25;1788456;80;21231;-53
2021/09/27 01:05:30;;;;;;;4.22;2.22;;;;;;;7.46;94.67;101151.30;1788572;80;21026;-51
2021/09/27 01:08:54;;;;;;;2.55;2.08;;;;;;;7.51;94.54;101150.45;1757883;80;21519;-52
2021/09/27 01:11:44;;;;;;;4.40;2.42;;;;;;;7.53;94.37;101152.17;1788534;80;21002;-52
2021/09/27 01:14:44;;;;;;;2.27;2.08;;;;;;;7.56;94.19;101156.05;1789017;80;21544;-50
2021/09/27 01:17:39;;;;;;;2.22;2.02;;;;;;;7.58;93.93;101158.23;1788452;80;21229;-50
2021/09/27 01:20:50;;;;;;;3.80;1.90;;;;;;;7.60;93.79;101153.95;1788600;80;22158;-51
2021/09/27 01:23:55;;;;;;;4.62;2.02;;;;;;;7.61;93.59;101163.81;1757283;81;21535;-52
2021/09/27 01:26:33;;;;;;;4.05;2.40;;;;;;;7.61;93.51;101166.39;1753990;81;20983;-54
2021/09/27 01:29:24;;;;;;;3.80;2.42;;;;;;;7.58;93.56;101167.66;1727461;81;21022;-52
2021/09/27 01:32:40;;;;;;;3.37;2.17;;;;;;;7.57;93.55;101164.21;1754518;81;21179;-50
2021/09/27 01:35:39;;;;;;;3.47;1.72;;;;;;;7.60;93.49;101162.09;1757642;81;20999;-50
2021/09/27 01:38:44;;;;;;;7.35;2.27;;;;;;;7.59;93.46;101168.10;1757396;81;20979;-52
2021/09/27 01:41:43;;;;;;;5.90;2.47;;;;;;;7.58;93.52;101164.67;1757626;81;21011;-49
2021/09/27 01:44:31;;;;;;;2.83;2.55;;;;;;;7.58;93.47;101175.39;1757270;81;20995;-52
2021/09/27 01:47:00;;;;;;;4.95;2.33;;;;;;;7.57;93.50;101173.67;1757707;81;21125;-53
2021/09/27 01:50:02;;;;;;;8.95;2.50;;;;;;;7.56;93.43;101173.23;1757559;81;20995;-54
2021/09/27 01:52:54;;;;;;;3.55;2.02;;;;;;;7.56;93.49;101172.80;1757318;81;20979;-54
2021/09/27 01:55:47;;;;;;;5.78;1.87;;;;;;;7.59;93.54;101180.98;1757269;81;20939;-52
2021/09/27 01:58:42;;;;;;;4.83;2.67;;;;;;;7.58;93.58;101179.26;1738514;82;20960;-50
2021/09/27 02:01:35;;;;;;;3.17;2.35;;;;;;;7.58;93.74;101180.55;1744318;82;21143;-53
2021/09/27 02:04:11;;;;;;;5.10;2.05;;;;;;;7.59;93.60;101177.99;1744035;82;21066;-52
2021/09/27 02:06:49;;;;;;;4.37;2.12;;;;;;;7.62;93.57;101179.70;1722928;82;20987;-53
2021/09/27 02:09:30;;;;;;;3.25;2.00;;;;;;;7.64;93.61;101188.30;1743713;82;20983;-54
2021/09/27 02:12:02;;;;;;;5.17;2.50;;;;;;;7.66;93.66;101194.33;1743966;82;21023;-53
2021/09/27 02:14:41;;;;;;;3.37;2.42;;;;;;;7.67;93.69;101193.47;1721218;82;21752;-52
2021/09/27 02:17:23;;;;;;;3.75;2.40;;;;;;;7.69;93.70;101194.34;1743657;82;20979;-49
2021/09/27 02:20:07;;;;;;;4.15;2.10;;;;;;;7.72;93.53;101192.22;1743894;82;21597;-53
2021/09/27 02:22:54;;;;;;;2.10;1.92;;;;;;;7.73;93.50;101193.53;1739445;82;21015;-53
2021/09/27 02:25:31;;;;;;;3.95;2.22;;;;;;;7.75;93.49;101193.52;1743129;82;20987;-53
2021/09/27 02:28:01;;;;;;;3.70;1.50;;;;;;;7.73;93.42;101196.52;1743552;82;21161;-55
2021/09/27 02:30:42;;;;;;;4.30;1.82;;;;;;;7.73;93.46;101196.52;1743495;82;21030;-56
2021/09/27 02:33:34;;;;;;;4.67;1.67;;;;;;;7.73;93.46;101197.39;1743791;82;20940;-55
2021/09/27 02:36:12;;;;;;;4.55;2.35;;;;;;;7.71;93.43;101197.81;1727230;82;20935;-52
2021/09/27 02:39:16;;;;;;;6.62;1.90;;;;;;;7.67;93.42;101197.34;1743967;82;20956;-54
2021/09/27 02:42:10;;;;;;;5.95;1.65;;;;;;;7.62;93.52;101193.88;1743964;82;22237;-56
2021/09/27 02:44:37;;;;;;;5.40;2.27;;;;;;;7.56;93.59;101202.87;1743686;82;21107;-50
2021/09/27 02:47:05;;;;;;;4.95;1.80;;;;;;;7.48;93.69;101210.13;1743664;82;20956;-52
2021/09/27 02:49:42;;;;;;;2.22;1.77;;;;;;;7.42;93.76;101201.05;1743673;82;21032;-51
2021/09/27 02:52:05;;;;;;;2.72;1.65;;;;;;;7.34;93.78;101205.30;1743028;82;20944;-55
2021/09/27 02:54:38;;;;;;;5.17;1.60;;;;;;;7.26;94.07;101210.39;1743812;82;21138;-50
2021/09/27 02:57:16;;;;;;;3.12;1.57;;;;;;;7.19;94.31;101206.90;1746062;82;21003;-50
2021/09/27 03:00:17;;;;;;;2.72;2.00;;;;;;;7.11;94.41;101201.28;1751166;82;21084;-50
2021/09/27 03:03:07;;;;;;;3.45;2.30;;;;;;;7.02;94.62;101197.77;1722025;82;20999;-53
2021/09/27 03:05:56;;;;;;;2.90;1.77;;;;;;;6.95;95.13;101211.88;1735095;82;21007;-50
2021/09/27 03:08:47;;;;;;;6.15;1.80;;;;;;;6.87;95.32;101216.95;1751637;82;21163;-53
2021/09/27 03:11:28;;;;;;;8.35;2.02;;;;;;;6.79;95.82;101216.87;1751289;82;20924;-53
2021/09/27 03:14:09;;;;;;;4.25;1.60;;;;;;;6.74;96.03;101216.83;1744760;82;22252;-53
2021/09/27 03:16:47;;;;;;;9.28;2.60;;;;;;;6.69;96.26;101222.36;1751641;82;20952;-55
2021/09/27 03:19:31;;;;;;;3.98;1.80;;;;;;;6.64;96.50;101227.88;1751457;82;21551;-54
2021/09/27 03:22:41;;;;;;;1.75;1.50;;;;;;;6.58;96.67;101231.25;1751230;80;21109;-51
2021/09/27 03:25:50;;;;;;;4.83;1.52;;;;;;;6.58;96.99;101226.10;1751973;81;21007;-51
2021/09/27 03:28:28;;;;;;;3.85;2.17;;;;;;;6.54;97.06;101230.78;1751781;82;21022;-53
2021/09/27 03:31:30;;;;;;;3.92;1.80;;;;;;;6.46;97.31;101235.84;1751566;82;21536;-53
2021/09/27 03:34:18;;;;;;;4.83;2.25;;;;;;;6.42;97.41;101246.06;1721469;82;20956;-50
2021/09/27 03:36:55;;;;;;;3.92;1.70;;;;;;;6.36;97.39;101242.14;1751654;82;21120;-53
2021/09/27 03:39:58;;;;;;;3.15;1.65;;;;;;;6.28;97.48;101246.78;1750743;82;20955;-53
2021/09/27 03:42:48;;;;;;;5.65;1.57;;;;;;;6.22;97.73;101245.43;1727024;82;20939;-55
2021/09/27 03:45:35;;;;;;;2.27;2.10;;;;;;;6.19;98.24;101247.97;1751605;81;20940;-56
2021/09/27 03:48:25;;;;;;;3.85;2.05;;;;;;;6.14;98.36;101246.61;1720869;82;20968;-54
2021/09/27 03:51:20;;;;;;;3.60;1.67;;;;;;;6.13;98.96;101246.58;1749570;82;21828;-52
2021/09/27 03:53:54;;;;;;;5.95;1.62;;;;;;;6.13;98.96;101246.58;1751753;82;21003;-51
2021/09/27 03:56:26;;;;;;;2.92;1.80;;;;;;;6.15;99.16;101252.60;1751957;82;20936;-50
2021/09/27 03:59:06;;;;;;;1.82;1.50;;;;;;;6.14;99.17;101248.31;1744399;82;20939;-54
2021/09/27 04:02:05;;;;;;;1.80;1.70;;;;;;;6.14;99.29;101248.31;1743677;82;21019;-51
2021/09/27 04:04:59;;;;;;;5.83;1.70;;;;;;;6.14;99.39;101253.45;1739190;82;21239;-53
2021/09/27 04:07:40;;;;;;;2.05;1.92;;;;;;;6.14;99.55;101258.19;1743682;82;20937;-55
2021/09/27 04:10:24;;;;;;;5.45;1.90;;;;;;;6.13;99.65;101263.30;1743694;82;20956;-54
2021/09/27 04:13:20;;;;;;;5.62;2.08;;;;;;;6.14;99.78;101265.89;1742802;82;21007;-53
2021/09/27 04:16:13;;;;;;;2.05;1.70;;;;;;;6.16;99.90;101256.49;1743773;81;21667;-51
2021/09/27 04:19:15;;;;;;;3.12;1.80;;;;;;;6.19;99.98;101258.25;1743566;82;21229;-53
2021/09/27 04:22:02;;;;;;;7.75;2.10;;;;;;;6.20;99.94;101266.81;1689024;83;20947;-51
2021/09/27 04:24:37;;;;;;;4.10;1.62;;;;;;;6.20;100.00;101262.55;1743649;82;21003;-54
2021/09/27 04:27:35;;;;;;;1.10;1.10;;;;;;;6.27;100.00;101267.32;1655571;85;20964;-56
2021/09/27 04:30:16;;;;;;;1.52;1.37;;;;;;;6.27;100.00;101267.32;1743619;82;21496;-54
2021/09/27 04:33:00;;;;;;;2.80;1.98;;;;;;;6.35;100.00;101268.70;1675461;85;21135;-54
2021/09/27 04:36:12;;;;;;;2.95;1.45;;;;;;;6.39;100.00;101268.77;1742287;82;21027;-54
2021/09/27 04:38:38;;;;;;;1.70;1.60;;;;;;;6.43;100.00;101263.22;1722427;82;20987;-52
2021/09/27 04:41:25;;;;;;;2.70;1.60;;;;;;;6.50;100.00;101265.45;1743641;82;21564;-55
2021/09/27 04:44:15;;;;;;;1.87;1.17;;;;;;;6.55;99.91;101269.81;1743510;82;20971;-55
2021/09/27 04:46:50;;;;;;;4.08;1.30;;;;;;;6.63;99.79;101275.45;1743631;82;21109;-51
2021/09/27 04:49:51;;;;;;;2.77;1.60;;;;;;;6.68;99.60;101271.22;1740100;82;20980;-53
2021/09/27 04:52:44;;;;;;;6.08;1.50;;;;;;;6.72;99.46;101269.14;1743529;82;20964;-54
2021/09/27 04:55:37;;;;;;;1.52;1.40;;;;;;;6.78;99.32;101276.03;1743599;82;20987;-54
2021/09/27 04:58:31;;;;;;;1.60;1.50;;;;;;;6.81;99.13;101276.94;1743582;82;20936;-53
2021/09/27 05:01:33;;;;;;;4.00;1.60;;;;;;;6.86;98.83;101262.84;1743545;82;22278;-52
2021/09/27 05:04:18;;;;;;;3.12;1.52;;;;;;;6.91;98.46;101265.03;1743507;82;20976;-54
2021/09/27 05:07:02;;;;;;;2.00;1.45;;;;;;;6.95;98.10;101265.50;1743440;82;21042;-52
2021/09/27 05:09:58;;;;;;;2.87;1.17;;;;;;;7.00;97.88;101266.84;1743019;82;20968;-52
2021/09/27 05:13:06;;;;;;;2.27;1.00;;;;;;;7.08;97.43;101270.77;1743675;82;21349;-52
2021/09/27 05:15:44;;;;;;;1.42;1.32;;;;;;;7.14;97.26;101272.11;1743695;82;21839;-54
2021/09/27 05:18:25;;;;;;;1.80;1.20;;;;;;;7.21;96.92;101276.45;1728372;82;21003;-51
2021/09/27 05:21:26;;;;;;;1.37;1.27;;;;;;;7.25;96.11;101276.91;1743559;81;20917;-54
2021/09/27 05:24:46;;;;;;;2.72;0.98;;;;;;;7.31;95.96;101267.09;1720876;82;20976;-54
2021/09/27 05:27:46;;;;;;;1.52;1.25;;;;;;;7.38;95.72;101270.59;1743604;82;21007;-52
2021/09/27 05:30:53;;;;;;;1.10;1.10;;;;;;;7.44;95.30;101279.20;1743975;82;21772;-54
2021/09/27 05:33:55;;;;;;;3.25;1.05;;;;;;;7.50;95.01;101272.40;1743267;82;20976;-54
2021/09/27 05:36:43;;;;;;;1.55;1.40;;;;;;;7.55;94.75;101275.87;1743117;82;21446;-52
2021/09/27 05:39:39;;;;;;;4.58;1.30;;;;;;;7.64;94.64;101278.94;1743021;82;20908;-54
2021/09/27 05:42:23;;;;;;;2.27;1.45;;;;;;;7.72;94.53;101288.86;1743755;82;20987;-53
2021/09/27 05:45:18;;;;;;;2.62;1.30;;;;;;;7.85;94.31;101287.23;1743843;82;20972;-53
2021/09/27 05:48:12;;;;;;;2.50;1.32;;;;;;;7.93;93.80;101286.84;1743702;82;21003;-52
2021/09/27 05:51:09;;;;;;;3.30;1.40;;;;;;;7.99;92.98;101288.59;1743766;82;20944;-57
2021/09/27 05:54:15;;;;;;;2.10;1.03;;;;;;;8.10;92.39;101288.66;1721956;82;20901;-54
2021/09/27 05:57:29;;;;;;;2.25;1.00;;;;;;;8.21;91.61;101285.72;1743684;82;21047;-53
2021/09/27 06:00:21;;;;;;;3.83;0.90;;;;;;;8.30;90.40;101292.61;1679021;85;21128;-52
2021/09/27 06:02:59;;;;;;;1.25;1.15;;;;;;;8.41;90.35;101295.23;1714581;83;21002;-52
2021/09/27 06:05:49;;;;;;;1.10;1.00;;;;;;;8.57;90.38;101297.06;1736184;82;20983;-53
2021/09/27 06:08:55;;;;;;;1.47;1.00;;;;;;;8.67;88.68;101299.25;1740335;82;21000;-54
2021/09/27 06:11:40;;;;;;;4.55;0.70;;;;;;;8.68;88.39;101297.52;1743470;82;20968;-51
2021/09/27 06:14:07;;;;;;;2.35;0.90;;;;;;;8.74;87.45;101291.95;1743825;82;21159;-54
2021/09/27 06:17:13;;;;;;;2.15;0.80;;;;;;;8.77;87.39;101288.08;1743827;82;20960;-54
2021/09/27 06:20:09;;;;;;;0.98;0.82;;;;;;;8.84;87.51;101288.95;1743085;82;20975;-52
2021/09/27 06:22:58;;;;;;;;;;;;;;;8.94;86.80;101280.80;1746378;81;21015;-54
2021/09/27 06:25:47;;;;;;;0.80;0.80;;;;;;;8.99;86.55;101284.25;1743832;82;20115;-54
2021/09/27 06:28:46;;;;;;;1.12;0.90;;;;;;;9.01;85.86;101290.72;1742362;82;21127;-52
2021/09/27 06:31:28;;;;;;;2.25;0.70;;;;;;;9.05;85.87;101286.83;1743815;82;20940;-55
2021/09/27 06:34:00;;;;;;;0.90;0.75;;;;;;;9.11;85.69;101282.11;1722661;82;21699;-53
2021/09/27 06:36:29;;;;;;;6.17;0.90;;;;;;;9.22;85.29;101281.24;1743949;82;20976;-52
2021/09/27 06:38:58;;;;;;;0.80;0.80;;;;;;;9.37;85.06;101286.88;1743610;82;21062;-52
2021/09/27 06:41:26;;;;;;;1.00;0.90;;;;;;;9.59;84.83;101289.00;1743604;82;21248;-53
2021/09/27 06:43:52;;;;;;;0.80;0.80;;;;;;;9.82;84.33;101289.40;1743916;82;21025;-54
2021/09/27 06:46:20;;;;;;;1.82;0.60;;;;;;;9.96;83.67;101295.39;1721141;82;20936;-51
2021/09/27 06:48:47;;;;;;;0.50;0.50;;;;;;;10.10;83.20;101289.33;1720788;82;20924;-54
2021/09/27 06:51:14;;;;;;;0.60;0.50;;;;;;;10.09;81.06;101296.22;1743888;82;20971;-53
2021/09/27 06:53:40;;;;;;;2.85;0.62;;;;;;;10.06;81.32;101296.23;1743945;82;21666;-54
2021/09/27 06:56:08;;;;;;;0.80;0.50;;;;;;;10.10;81.39;101300.97;1743703;82;21521;-54
2021/09/27 06:58:35;;;;;;;1.27;0.50;;;;;;;10.20;80.55;101303.53;1746346;82;20948;-52
2021/09/27 07:01:01;;;;;;;2.17;0.80;;;;;;;10.27;79.74;101295.73;1751616;82;20944;-51
2021/09/27 07:03:28;;;;;;;1.37;0.50;;;;;;;10.28;78.92;101298.33;1751599;82;20928;-56
2021/09/27 07:05:54;;;;;;;3.40;0.55;;;;;;;10.25;78.81;101296.17;1751564;82;21814;-56
2021/09/27 07:08:21;;;;;;;0.40;0.40;;;;;;;10.29;79.24;101287.53;1751972;82;20936;-52
2021/09/27 07:10:48;;;;;;;0.85;0.50;;;;;;;10.41;78.51;101299.17;1751463;82;21718;-54
2021/09/27 07:13:15;;;;;;;0.40;0.40;;;;;;;10.56;78.41;101287.00;1722190;82;20987;-57
2021/09/27 07:15:42;;;;;;;0.45;0.40;;;;;;;10.67;77.58;101294.30;1751712;82;21015;-54
2021/09/27 07:18:09;;;;;;;2.30;0.57;;;;;;;10.73;76.89;101290.80;1751791;82;21108;-54
2021/09/27 07:20:36;;;;;;;3.65;0.95;;;;;;;10.75;76.26;101292.52;1751434;80;21797;-52
2021/09/27 07:23:03;;;;;;;2.05;0.60;;;;;;;10.73;75.98;101295.97;1751906;82;20939;-54
2021/09/27 07:25:30;;;;;;;1.05;0.40;;;;;;;10.76;76.21;101299.87;1721815;82;21018;-55
2021/09/27 07:27:58;;;;;;;0.40;0.40;;;;;;;10.84;76.03;101301.09;1751530;82;21019;-55
2021/09/27 07:30:25;;;;;;;0.75;0.40;;;;;;;10.83;75.60;101305.43;1720565;82;21252;-52
2021/09/27 07:32:52;;;;;;;0.57;0.57;;;;;;;10.86;75.06;101295.05;1751656;82;21175;-54
2021/09/27 07:35:22;;;;;;;0.33;0.30;;;;;;;10.89;75.95;101288.55;1751588;82;20982;-54
2021/09/27 07:37:49;;;;;;;0.37;0.37;;;;;;;11.00;74.04;101294.11;1751758;82;20983;-52
2021/09/27 07:40:19;;;;;;;1.35;0.28;;;;;;;11.07;73.99;101300.96;1751710;82;20912;-55
2021/09/27 07:42:46;;;;;;;1.65;0.37;;;;;;;11.15;73.23;101293.98;1751378;82;21231;-52
2021/09/27 07:45:14;;;;;;;0.60;0.40;;;;;;;11.23;72.67;101292.63;1751492;82;21167;-57
2021/09/27 07:47:40;;;;;;;2.50;0.40;;;;;;;11.31;71.88;101296.02;1720534;82;20979;-55
2021/09/27 07:50:08;;;;;;;0.75;0.30;;;;;;;11.43;71.77;101288.57;1751510;82;20940;-54
2021/09/27 07:52:35;;;;;;;0.45;0.45;;;;;;;11.50;70.93;101294.57;1751656;82;20983;-55
2021/09/27 07:55:04;;;;;;;5.25;0.28;;;;;;;11.53;72.29;101294.54;1720802;82;21849;-53
2021/09/27 07:57:30;;;;;;;4.03;0.72;;;;;;;11.60;72.35;101294.05;1751574;82;21034;-57
2021/09/27 07:59:57;;;;;;;0.40;0.30;;;;;;;11.58;71.30;101297.10;1745181;82;21019;-52
2021/09/27 08:02:28;;;;;;;0.62;0.40;;;;;;;11.54;71.33;101294.12;1743651;82;20995;-55
2021/09/27 08:04:52;;;;;;;2.10;0.60;;;;;;;11.59;70.96;101296.23;1742914;82;20936;-56
2021/09/27 08:07:19;;;;;;;2.08;0.40;;;;;;;11.72;70.74;101299.11;1720665;82;21248;-54
2021/09/27 08:09:46;;;;;;;1.32;0.50;;;;;;;11.88;70.62;101293.36;1743504;82;20912;-56
2021/09/27 08:12:13;;;;;;;1.22;0.50;;;;;;;12.02;70.15;101292.36;1743901;82;20984;-53
2021/09/27 08:14:39;;;;;;;0.35;0.35;;;;;;;12.11;68.87;101295.30;1743661;82;22077;-53
2021/09/27 08:17:06;;;;;;;2.15;0.47;;;;;;;12.24;69.64;101289.52;1743992;82;21008;-57
2021/09/27 08:19:32;;;;;;;0.30;0.30;;;;;;;12.35;67.35;101287.22;1743555;82;21005;-58
2021/09/27 08:21:59;;;;;;;0.60;0.23;;;;;;;12.44;67.30;101285.37;1743691;81;21654;-53
2021/09/27 08:24:27;;;;;;;2.50;0.40;;;;;;;12.55;66.74;101284.80;1743595;82;21414;-54
2021/09/27 08:26:55;;;;;;;0.42;0.30;;;;;;;12.77;65.32;101288.41;1743400;82;20956;-54
2021/09/27 08:29:22;;;;;;;1.72;0.50;;;;;;;13.02;65.51;101277.19;1743564;82;21542;-54
2021/09/27 08:31:48;;;;;;;0.40;0.40;;;;;;;13.31;63.59;101277.61;1743819;82;21799;-53
2021/09/27 08:34:16;;;;;;;2.75;0.40;;;;;;;13.58;63.42;101277.59;1720434;82;21594;-52
2021/09/27 08:36:43;;;;;;;5.30;0.60;;;;;;;13.82;62.71;101273.28;1743550;82;20945;-56
2021/09/27 08:39:11;;;;;;;0.30;0.30;;;;;;;13.71;60.79;101278.23;1743505;82;20933;-55
2021/09/27 08:41:47;;;;;;;0.30;0.30;;;;;;;13.33;62.65;101268.88;1743623;82;20976;-54
2021/09/27 08:44:43;;;;;;;2.25;0.60;;;;;;;13.17;62.88;101281.74;1706557;83;21138;-52
2021/09/27 08:47:18;;;;;;;0.40;0.40;;;;;;;13.17;62.31;101281.28;1707807;84;20988;-56
2021/09/27 08:50:05;;;;;;;1.80;0.30;;;;;;;13.30;63.03;101276.74;1743895;82;22142;-52
2021/09/27 08:52:36;;;;;;;0.20;0.20;;;;;;;13.48;62.44;101274.75;1743517;82;20947;-55
2021/09/27 08:55:09;;;;;;;0.30;0.20;;;;;;;13.59;61.68;101271.50;1723208;82;20944;-54
2021/09/27 08:57:54;;;;;;;0.60;0.20;;;;;;;13.74;60.74;101274.72;1695284;82;22537;-56
2021/09/27 09:00:50;;;;;;;0.57;0.30;;;;;;;13.84;59.14;101279.31;1743536;82;20967;-53
2021/09/27 09:03:33;;;;;;;0.40;0.40;;;;;;;13.99;58.77;101271.19;1722604;82;20913;-54
2021/09/27 09:06:12;;;;;;;2.58;0.20;;;;;;;14.31;58.49;101271.00;1742964;82;20948;-51
2021/09/27 09:08:48;;;;;;;0.30;0.20;;;;;;;14.70;57.94;101270.16;1722756;82;21375;-54
2021/09/27 09:11:47;;;;;;;1.70;0.20;;;;;;;14.91;56.13;101266.22;1743581;82;21102;-52
2021/09/27 09:14:34;;;;;;;0.10;0.10;;;;;;;14.92;56.23;101261.88;1743515;82;21054;-56
2021/09/27 09:17:07;;;;;;;0.20;0.20;;;;;;;15.10;56.08;101259.27;1743589;82;21469;-56
2021/09/27 09:19:34;;;;;;;2.05;0.30;;;;;;;15.64;52.60;101255.72;1741909;82;20963;-56
2021/09/27 09:22:05;;;;;;;0.80;0.20;;;;;;;15.80;52.80;101260.06;1743694;81;21015;-53
2021/09/27 09:24:36;;;;;;;0.47;0.30;;;;;;;15.70;52.03;101264.68;1742358;82;21266;-54
2021/09/27 09:27:07;;;;;;;0.53;0.20;;;;;;;15.22;53.50;101270.68;1698857;82;21639;-52
2021/09/27 09:29:37;;;;;;;0.93;0.30;;;;;;;14.83;54.09;101265.98;1743704;82;21541;-53
2021/09/27 09:32:20;;;;;;;0.10;0.10;;;;;;;14.71;55.18;101269.73;1743919;82;20916;-55
2021/09/27 09:34:51;;;;;;;1.95;0.25;;;;;;;14.90;55.35;101264.50;1743837;82;20972;-54
2021/09/27 09:37:37;;;;;;;1.17;0.20;;;;;;;15.34;52.66;101251.26;1744060;82;21858;-54
2021/09/27 09:40:31;;;;;;;0.75;0.10;;;;;;;15.75;51.91;101252.81;1743901;82;21019;-54
2021/09/27 09:43:09;;;;;;;4.90;0.20;;;;;;;15.88;49.99;101250.72;1743724;82;21030;-53
2021/09/27 09:45:46;;;;;;;0.15;0.15;;;;;;;15.80;50.63;101255.72;1743691;82;21549;-54
2021/09/27 09:48:21;;;;;;;0.17;0.17;;;;;;;15.68;50.47;101258.64;1743930;82;20991;-56
2021/09/27 09:50:54;;;;;;;0.10;0.10;;;;;;;15.76;48.72;101255.37;1743883;82;20991;-54
2021/09/27 09:53:26;;;;;;;0.10;0.03;;;;;;;15.82;50.62;101258.73;1743364;82;20952;-55
2021/09/27 09:55:57;;;;;;;0.15;0.10;;;;;;;15.70;49.06;101258.16;1744065;82;20976;-53
2021/09/27 09:58:51;;;;;;;0.17;0.10;;;;;;;15.49;49.83;101256.98;1743583;82;20964;-57
2021/09/27 10:01:34;;;;;;;0.20;0.20;;;;;;;15.68;49.82;101259.95;1743683;82;21003;-54
2021/09/27 10:04:09;;;;;;;0.50;0.20;;;;;;;16.21;47.28;101250.23;1743902;82;21139;-54
2021/09/27 10:06:48;;;;;;;1.77;0.10;;;;;;;16.43;47.32;101248.30;1743555;82;20983;-50
2021/09/27 10:09:27;;;;;;;0.20;0.20;;;;;;;16.21;48.21;101255.46;1742730;82;21031;-57
2021/09/27 10:12:03;;;;;;;0.20;0.20;;;;;;;16.18;48.15;101262.52;1743547;82;20897;-54
2021/09/27 10:14:36;;;;;;;0.10;0.10;;;;;;;16.24;47.61;101261.03;1743920;82;21541;-53
2021/09/27 10:17:31;;;;;;;0.30;0.10;;;;;;;16.50;49.58;101263.31;1743636;82;21129;-55
2021/09/27 10:20:30;;;;;;;1.20;0.30;;;;;;;16.68;48.80;101261.05;1743690;82;20988;-56
2021/09/27 10:22:58;;;;;;;0.30;0.30;;;;;;;17.18;46.17;101252.52;1722370;82;21003;-53
2021/09/27 10:25:46;;;;;;;0.55;0.20;;;;;;;17.50;45.54;101252.69;1743632;82;20943;-53
2021/09/27 10:28:19;;;;;;;1.82;0.40;;;;;;;17.59;43.96;101254.61;1743784;82;21449;-55
2021/09/27 10:30:52;;;;;;;0.13;0.10;;;;;;;17.27;45.40;101257.86;1721592;82;20976;-56
2021/09/27 10:33:23;;;;;;;0.30;0.10;;;;;;;17.05;47.13;101259.88;1744001;82;20956;-51
2021/09/27 10:35:58;;;;;;;4.22;0.30;;;;;;;16.74;47.30;101259.53;1743653;82;20916;-57
2021/09/27 10:38:46;;;;;;;1.37;0.40;;;;;;;16.15;48.30;101263.92;1743859;82;21003;-55
2021/09/27 10:41:30;;;;;;;1.65;0.20;;;;;;;15.92;50.10;101266.73;1743683;82;21026;-55
2021/09/27 10:44:01;;;;;;;0.30;0.20;;;;;;;16.21;48.67;101265.05;1738630;82;21093;-56
2021/09/27 10:46:37;;;;;;;0.37;0.20;;;;;;;16.43;47.57;101258.75;1743615;82;21529;-57
2021/09/27 10:49:06;;;;;;;2.30;0.23;;;;;;;16.44;46.75;101260.89;1721090;82;21035;-55
2021/09/27 10:51:36;;;;;;;0.30;0.10;;;;;;;16.30;47.02;101262.18;1722693;82;20936;-57
2021/09/27 10:54:17;;;;;;;1.80;0.30;;;;;;;16.13;47.01;101265.25;1743867;82;20995;-55
2021/09/27 10:56:48;;;;;;;0.10;0.10;;;;;;;15.98;47.81;101266.55;1720375;82;21199;-54
2021/09/27 10:59:31;;;;;;;0.42;0.10;;;;;;;16.08;48.41;101263.23;1743419;82;20908;-53
2021/09/27 11:02:23;;;;;;;3.20;0.68;;;;;;;16.38;48.46;101269.77;1743615;82;21581;-56
2021/09/27 11:04:58;;;;;;;1.35;0.20;;;;;;;16.35;48.05;101272.03;1743643;82;20941;-54
2021/09/27 11:07:35;;;;;;;0.30;0.17;;;;;;;16.28;47.92;101271.78;1743090;82;21046;-51
2021/09/27 11:10:05;;;;;;;0.35;0.28;;;;;;;16.01;47.96;101276.06;1743627;82;21144;-54
2021/09/27 11:12:40;;;;;;;0.78;0.30;;;;;;;15.86;49.42;101282.08;1723038;82;20959;-55
2021/09/27 11:15:26;;;;;;;0.30;0.30;;;;;;;15.86;49.17;101278.63;1722934;82;20964;-55
2021/09/27 11:18:12;;;;;;;1.17;0.42;;;;;;;15.79;49.28;101278.80;1743691;82;21601;-56
2021/09/27 11:20:51;;;;;;;4.58;0.80;;;;;;;15.75;50.44;101275.00;1722221;80;21442;-54
2021/09/27 11:23:34;;;;;;;0.45;0.28;;;;;;;15.74;49.79;101270.22;1743703;82;21156;-55
2021/09/27 11:26:15;;;;;;;0.82;0.35;;;;;;;15.68;48.76;101263.86;1743690;82;21031;-56
2021/09/27 11:28:51;;;;;;;1.10;0.80;;;;;;;15.56;48.86;101266.82;1743866;82;20897;-56
2021/09/27 11:31:34;;;;;;;2.80;0.60;;;;;;;15.48;49.22;101273.53;1743644;82;20972;-57
2021/09/27 11:34:32;;;;;;;0.20;0.20;;;;;;;15.39;51.03;101275.92;1743769;82;20988;-52
2021/09/27 11:37:40;;;;;;;0.72;0.20;;;;;;;15.22;50.58;101277.20;1722930;82;20984;-54
2021/09/27 11:40:17;;;;;;;;;;;;;;;15.15;52.02;101270.44;1738925;82;21019;-52
2021/09/27 11:43:04;;;;;;;0.70;0.70;;;;;;;15.07;50.57;101269.31;1743899;82;20144;-55
2021/09/27 11:45:47;;;;;;;0.60;0.60;;;;;;;14.98;51.96;101266.06;1743576;82;20983;-56
2021/09/27 11:48:22;;;;;;;1.75;0.40;;;;;;;14.99;50.77;101272.56;1743723;82;20983;-55
2021/09/27 11:51:04;;;;;;;1.12;0.40;;;;;;;14.87;50.51;101272.41;1741698;82;22002;-55
2021/09/27 11:53:47;;;;;;;0.28;0.28;;;;;;;14.83;50.96;101277.28;1742039;82;21541;-54
2021/09/27 11:56:36;;;;;;;1.45;0.40;;;;;;;14.83;50.79;101282.49;1743571;82;20960;-52
2021/09/27 11:59:12;;;;;;;3.12;0.80;;;;;;;14.83;51.60;101282.92;1722252;82;21590;-54
2021/09/27 12:02:05;;;;;;;2.45;0.30;;;;;;;14.89;51.29;101275.83;1743565;82;20957;-52
2021/09/27 12:05:11;;;;;;;12.30;1.00;;;;;;;14.90;50.40;101278.84;1743400;82;20945;-52
2021/09/27 12:07:44;;;;;;;0.30;0.25;;;;;;;14.86;49.94;101281.55;1743675;82;20956;-54
2021/09/27 12:10:23;;;;;;;2.27;0.30;;;;;;;14.79;50.23;101279.55;1743787;82;21471;-57
2021/09/27 12:13:06;;;;;;;1.95;0.60;;;;;;;14.74;50.97;101278.78;1743492;82;20940;-55
2021/09/27 12:15:39;;;;;;;4.00;0.45;;;;;;;14.72;51.46;101274.05;1743609;82;21043;-53
2021/09/27 12:18:06;;;;;;;0.88;0.40;;;;;;;14.73;52.58;101274.45;1720580;82;21055;-55
2021/09/27 12:20:39;;;;;;;2.42;0.47;;;;;;;14.82;52.00;101277.30;1743478;81;20952;-51
2021/09/27 12:23:10;;;;;;;0.30;0.30;;;;;;;14.78;53.17;101276.53;1721061;82;20912;-54
2021/09/27 12:25:41;;;;;;;0.55;0.55;;;;;;;14.82;53.49;101274.70;1743535;82;20991;-55
2021/09/27 12:28:13;;;;;;;0.42;0.42;;;;;;;14.92;53.45;101283.57;1720853;82;21465;-54
2021/09/27 12:30:43;;;;;;;2.70;2.50;;;;;;;15.06;52.99;101285.01;1741012;82;21092;-53